Time;durP1;ratioP1;P1;durP2;ratioP2;P2;SDS_P1;SDS_P2;PMS_P1;PMS_P2;Temp;Humidity;BMP_temperature;BMP_pressure;BME280_temperature;BME280_humidity;BME280_pressure;Samples;Min_cycle;Max_cycle;Signal;HPM_P1;HPM_P2
2021/12/01 00:01:39;;;;;;;1.70;0.45;;;12.20;99.90;;;;;;4991970;28;20171;-84
2021/12/01 00:04:06;;;;;;;2.88;0.75;;;12.20;99.90;;;;;;4974346;28;20167;-84
2021/12/01 00:06:33;;;;;;;1.13;0.40;;;12.20;99.90;;;;;;4991678;28;20178;-83
2021/12/01 00:08:59;;;;;;;1.88;0.50;;;12.20;99.90;;;;;;4991890;28;20257;-84
2021/12/01 00:11:25;;;;;;;0.90;0.45;;;12.20;99.90;;;;;;4992353;28;20182;-83
2021/12/01 00:13:50;;;;;;;1.00;0.47;;;12.20;99.90;;;;;;4979061;28;20186;-83
2021/12/01 00:16:16;;;;;;;1.00;0.40;;;12.20;99.90;;;;;;4991682;28;20628;-83
2021/12/01 00:18:42;;;;;;;0.90;0.40;;;12.20;99.90;;;;;;4990884;28;20658;-83
2021/12/01 00:21:08;;;;;;;1.73;0.50;;;12.20;99.90;;;;;;4990682;28;20163;-83
2021/12/01 00:23:34;;;;;;;0.90;0.40;;;12.20;99.90;;;;;;4991025;28;20699;-83
2021/12/01 00:26:00;;;;;;;0.90;0.40;;;12.20;99.90;;;;;;4990435;28;20625;-83
2021/12/01 00:28:26;;;;;;;1.23;0.50;;;12.20;99.90;;;;;;4972563;28;20179;-84
2021/12/01 00:30:57;;;;;;;1.10;0.40;;;12.20;99.90;;;;;;4990546;28;20247;-84
2021/12/01 00:33:23;;;;;;;1.55;0.43;;;12.20;99.90;;;;;;4989894;28;20183;-84
2021/12/01 00:35:51;;;;;;;1.00;0.40;;;12.30;99.90;;;;;;4973127;28;20214;-84
2021/12/01 00:38:17;;;;;;;1.33;0.50;;;12.30;99.90;;;;;;4991285;28;20562;-84
2021/12/01 00:40:43;;;;;;;1.10;0.50;;;12.30;99.90;;;;;;4991736;28;20241;-84
2021/12/01 00:43:16;;;;;;;1.50;0.50;;;12.30;99.90;;;;;;4991482;28;20171;-84
2021/12/01 00:46:08;;;;;;;0.90;0.40;;;12.30;99.90;;;;;;4991658;28;20583;-83
2021/12/01 00:48:34;;;;;;;1.75;0.50;;;12.30;99.90;;;;;;4990330;28;20577;-83
2021/12/01 00:50:59;;;;;;;0.90;0.40;;;12.30;99.90;;;;;;4980500;28;20177;-83
2021/12/01 00:53:25;;;;;;;1.03;0.50;;;12.30;99.90;;;;;;4994376;28;20229;-83
2021/12/01 00:55:51;;;;;;;1.20;0.40;;;12.30;99.90;;;;;;4993291;28;20218;-83
2021/12/01 00:58:17;;;;;;;1.20;0.47;;;12.30;99.90;;;;;;4993456;28;20566;-83
2021/12/01 01:00:44;;;;;;;1.00;0.50;;;12.30;99.90;;;;;;5014582;23;20736;-80
2021/12/01 01:03:10;;;;;;;1.42;0.40;;;12.30;99.90;;;;;;5016479;28;20668;-81
2021/12/01 01:05:36;;;;;;;1.20;0.60;;;12.30;99.90;;;;;;4995506;28;20170;-80
2021/12/01 01:08:03;;;;;;;0.90;0.40;;;12.30;99.90;;;;;;5022418;28;20569;-81
2021/12/01 01:18:41;;;;;;;0.88;0.40;;;12.40;99.90;;;;;;5018987;28;20259;-81
2021/12/01 01:21:07;;;;;;;0.90;0.30;;;12.40;99.90;;;;;;5027287;28;20411;-81
2021/12/01 01:23:35;;;;;;;0.90;0.40;;;12.40;99.90;;;;;;4998871;28;20530;-81
2021/12/01 01:26:03;;;;;;;0.90;0.40;;;12.40;99.90;;;;;;5016961;28;20257;-82
2021/12/01 01:28:29;;;;;;;0.90;0.32;;;12.40;99.90;;;;;;5016518;28;20163;-81
2021/12/01 01:30:55;;;;;;;0.90;0.40;;;12.40;99.90;;;;;;5021113;28;20186;-81
2021/12/01 01:33:22;;;;;;;0.90;0.40;;;12.40;99.90;;;;;;5016768;28;20186;-80
2021/12/01 01:35:48;;;;;;;0.90;0.40;;;12.40;99.90;;;;;;5002838;28;20664;-81
2021/12/01 01:38:14;;;;;;;0.90;0.40;;;12.40;99.90;;;;;;5019086;28;20794;-81
2021/12/01 01:40:40;;;;;;;0.90;0.40;;;12.40;99.90;;;;;;5020791;28;20188;-81
2021/12/01 01:43:09;;;;;;;0.90;0.40;;;12.40;99.90;;;;;;5020337;28;20170;-80
2021/12/01 01:45:35;;;;;;;0.90;0.30;;;12.40;99.90;;;;;;5015577;28;20583;-81
2021/12/01 01:48:05;;;;;;;1.00;0.50;;;12.40;99.90;;;;;;4996343;28;20182;-81
2021/12/01 01:50:37;;;;;;;1.08;0.40;;;12.40;99.90;;;;;;5014488;28;20218;-80
2021/12/01 01:53:06;;;;;;;0.90;0.40;;;12.40;99.90;;;;;;5014241;28;20170;-81
2021/12/01 01:55:33;;;;;;;1.10;0.40;;;12.40;99.90;;;;;;4997092;28;20194;-81
2021/12/01 01:57:59;;;;;;;1.55;0.65;;;12.40;99.90;;;;;;5003337;28;20163;-81
2021/12/01 02:00:26;;;;;;;2.53;0.40;;;12.50;99.90;;;;;;5013904;28;20189;-81
2021/12/01 02:02:53;;;;;;;1.60;0.40;;;12.50;99.90;;;;;;4995521;28;20269;-81
2021/12/01 02:05:21;;;;;;;0.80;0.30;;;12.50;99.90;;;;;;4996041;28;20938;-81
2021/12/01 02:07:48;;;;;;;0.90;0.30;;;12.50;99.90;;;;;;4995625;28;20251;-82
2021/12/01 02:10:15;;;;;;;2.10;0.40;;;12.50;99.90;;;;;;5015601;28;20178;-81
2021/12/01 02:12:41;;;;;;;0.90;0.40;;;12.40;99.90;;;;;;4978969;28;20253;-81
2021/12/01 02:15:08;;;;;;;0.90;0.40;;;12.50;99.90;;;;;;5012951;28;20286;-81
2021/12/01 02:17:34;;;;;;;1.10;0.77;;;12.50;99.90;;;;;;5012279;28;20612;-81
2021/12/01 02:20:00;;;;;;;2.65;0.40;;;12.40;99.90;;;;;;5013291;28;20178;-81
2021/12/01 02:22:26;;;;;;;1.00;0.40;;;12.40;99.90;;;;;;5011129;28;20181;-81
2021/12/01 02:24:52;;;;;;;0.90;0.40;;;12.40;99.90;;;;;;5013197;28;20788;-82
2021/12/01 02:27:18;;;;;;;1.00;0.47;;;12.40;99.90;;;;;;5012360;28;20234;-81
2021/12/01 02:29:44;;;;;;;1.00;0.40;;;12.40;99.90;;;;;;5012503;28;20177;-81
2021/12/01 02:32:10;;;;;;;1.57;0.40;;;12.40;99.90;;;;;;5010890;28;20555;-81
2021/12/01 02:34:38;;;;;;;1.10;0.50;;;12.30;99.90;;;;;;5010789;28;20585;-82
2021/12/01 02:37:04;;;;;;;1.00;0.50;;;12.30;99.90;;;;;;5011687;28;20269;-81
2021/12/01 02:39:31;;;;;;;1.40;0.60;;;12.30;99.90;;;;;;5011934;28;20170;-81
2021/12/01 02:42:05;;;;;;;0.90;0.40;;;12.30;99.90;;;;;;5011421;28;20561;-81
2021/12/01 02:44:31;;;;;;;1.02;0.50;;;12.30;99.90;;;;;;5012511;28;20245;-81
2021/12/01 02:46:57;;;;;;;1.20;0.60;;;12.30;99.90;;;;;;5014233;28;20186;-81
2021/12/01 02:49:24;;;;;;;1.10;0.57;;;12.20;99.90;;;;;;5020643;28;20577;-81
2021/12/01 02:51:53;;;;;;;1.23;0.47;;;12.20;99.90;;;;;;5012453;28;20609;-82
2021/12/01 02:54:19;;;;;;;1.50;0.60;;;12.20;99.90;;;;;;5012482;28;20175;-82
2021/12/01 02:56:50;;;;;;;1.30;0.70;;;12.20;99.90;;;;;;5011853;28;20224;-82
2021/12/01 02:59:17;;;;;;;1.30;0.50;;;12.20;99.90;;;;;;5011760;28;20178;-81
2021/12/01 03:01:44;;;;;;;1.50;0.60;;;12.10;99.90;;;;;;5012013;28;20194;-81
2021/12/01 03:04:10;;;;;;;1.45;0.70;;;12.10;99.90;;;;;;5012083;28;20483;-81
2021/12/01 03:06:37;;;;;;;1.75;0.60;;;12.10;99.90;;;;;;5012114;28;20193;-81
2021/12/01 03:09:05;;;;;;;2.03;0.65;;;12.10;99.90;;;;;;5012159;28;20196;-81
2021/12/01 03:11:31;;;;;;;1.88;0.70;;;12.10;99.90;;;;;;4994807;28;20198;-81
2021/12/01 03:13:57;;;;;;;1.50;0.70;;;12.00;99.90;;;;;;4993255;28;20228;-81
2021/12/01 03:16:23;;;;;;;3.53;0.70;;;12.00;99.90;;;;;;5012179;28;20198;-81
2021/12/01 03:18:49;;;;;;;1.83;0.68;;;12.00;99.90;;;;;;5010578;28;20619;-81
2021/12/01 03:21:16;;;;;;;1.60;0.80;;;12.00;99.90;;;;;;4994666;28;20194;-81
2021/12/01 03:23:42;;;;;;;1.98;0.80;;;12.00;99.90;;;;;;4997810;28;20162;-81
2021/12/01 03:26:09;;;;;;;1.40;0.82;;;12.00;99.90;;;;;;5012559;28;20236;-81
2021/12/01 03:28:35;;;;;;;1.60;0.90;;;12.00;99.90;;;;;;5012522;28;20518;-81
2021/12/01 03:31:01;;;;;;;1.45;0.85;;;12.00;99.90;;;;;;5012946;28;20194;-81
2021/12/01 03:33:27;;;;;;;1.85;0.80;;;12.00;99.90;;;;;;5012223;28;20198;-81
2021/12/01 03:35:53;;;;;;;1.93;0.80;;;12.00;99.90;;;;;;5012025;28;20240;-81
2021/12/01 03:38:21;;;;;;;2.00;0.98;;;11.90;99.90;;;;;;5010965;28;20187;-80
2021/12/01 03:40:48;;;;;;;2.00;0.80;;;11.90;99.90;;;;;;5010919;28;20197;-80
2021/12/01 03:43:14;;;;;;;4.65;1.23;;;11.90;99.90;;;;;;4993848;28;20166;-80
2021/12/01 03:45:41;;;;;;;1.40;1.00;;;11.90;99.90;;;;;;5011289;28;20178;-80
2021/12/01 03:48:07;;;;;;;1.23;0.80;;;11.90;99.90;;;;;;5010838;28;20182;-81
2021/12/01 03:50:34;;;;;;;2.00;0.80;;;11.90;99.90;;;;;;5011278;28;20194;-80
2021/12/01 03:53:00;;;;;;;1.98;1.00;;;11.90;99.90;;;;;;4993824;28;20162;-80
2021/12/01 03:55:26;;;;;;;2.55;0.93;;;11.90;99.90;;;;;;4993598;28;20752;-82
2021/12/01 03:57:52;;;;;;;1.80;0.90;;;11.90;99.90;;;;;;5011457;28;20266;-82
2021/12/01 04:00:19;;;;;;;3.60;1.10;;;11.90;99.90;;;;;;4996514;28;20605;-81
2021/12/01 04:02:46;;;;;;;2.50;1.10;;;11.90;99.90;;;;;;5012076;28;20174;-81
2021/12/01 04:05:12;;;;;;;2.55;1.20;;;11.90;99.90;;;;;;5011621;28;20273;-81
2021/12/01 04:07:39;;;;;;;1.73;1.27;;;11.90;99.90;;;;;;5010931;28;20174;-81
2021/12/01 04:10:09;;;;;;;1.65;1.13;;;11.90;99.90;;;;;;5011310;28;20231;-81
2021/12/01 04:12:35;;;;;;;1.55;1.02;;;11.90;99.90;;;;;;5010916;28;20629;-81
2021/12/01 04:15:02;;;;;;;1.57;0.90;;;11.90;99.90;;;;;;5011439;28;20337;-82
2021/12/01 04:17:28;;;;;;;3.30;1.20;;;11.90;99.90;;;;;;4976663;28;20585;-81
2021/12/01 04:19:54;;;;;;;2.23;1.10;;;11.90;99.90;;;;;;5011488;28;20163;-80
2021/12/01 04:22:20;;;;;;;2.50;1.10;;;11.90;99.90;;;;;;4993391;28;21199;-80
2021/12/01 04:24:46;;;;;;;1.97;1.63;;;11.90;99.90;;;;;;4994878;28;21170;-80
2021/12/01 04:27:12;;;;;;;1.80;1.37;;;11.90;99.90;;;;;;5013272;28;20163;-81
2021/12/01 04:29:39;;;;;;;1.45;1.10;;;11.90;99.90;;;;;;5014823;28;20174;-81
2021/12/01 04:32:05;;;;;;;1.80;1.30;;;11.90;99.90;;;;;;4997421;28;20605;-81
2021/12/01 04:34:31;;;;;;;1.70;1.20;;;11.90;99.90;;;;;;5014701;28;20163;-81
2021/12/01 04:36:57;;;;;;;1.57;1.30;;;11.90;99.90;;;;;;5014614;28;20209;-81
2021/12/01 04:39:23;;;;;;;2.58;1.55;;;11.90;99.90;;;;;;5014626;28;20257;-81
2021/12/01 04:41:55;;;;;;;2.80;1.40;;;11.90;99.90;;;;;;4996984;28;20289;-81
2021/12/01 04:44:22;;;;;;;2.03;1.52;;;11.80;99.90;;;;;;5014372;28;20186;-81
2021/12/01 04:46:49;;;;;;;2.30;1.70;;;11.80;99.90;;;;;;5014872;28;20225;-80
2021/12/01 04:49:18;;;;;;;2.70;1.83;;;11.80;99.90;;;;;;5014093;28;20174;-81
2021/12/01 04:51:48;;;;;;;3.72;2.40;;;11.80;99.90;;;;;;4996601;28;20978;-80
2021/12/01 04:54:15;;;;;;;2.35;1.70;;;11.80;99.90;;;;;;5013586;28;20178;-80
2021/12/01 04:56:41;;;;;;;2.70;1.50;;;11.70;99.90;;;;;;5013746;28;20743;-79
2021/12/01 04:59:08;;;;;;;1.90;1.67;;;11.70;99.90;;;;;;4996415;28;20174;-79
2021/12/01 05:01:35;;;;;;;2.38;1.75;;;11.70;99.90;;;;;;4996606;28;20202;-80
2021/12/01 05:04:02;;;;;;;2.22;1.52;;;11.70;99.90;;;;;;5013876;28;20225;-80
2021/12/01 05:06:28;;;;;;;2.80;1.85;;;11.80;99.90;;;;;;5014085;28;20178;-80
2021/12/01 05:08:53;;;;;;;4.07;1.63;;;11.80;99.90;;;;;;5014153;28;20619;-80
2021/12/01 05:11:19;;;;;;;2.37;2.03;;;11.70;99.90;;;;;;4996446;28;21233;-80
2021/12/01 05:13:45;;;;;;;3.30;1.83;;;11.70;99.90;;;;;;5014096;28;20178;-79
2021/12/01 05:16:11;;;;;;;2.00;1.40;;;11.60;99.90;;;;;;5017155;28;20201;-80
2021/12/01 05:18:37;;;;;;;1.90;1.40;;;11.70;99.90;;;;;;5013307;28;20206;-80
2021/12/01 05:21:03;;;;;;;2.30;1.70;;;11.60;99.90;;;;;;5011867;28;20187;-80
2021/12/01 05:23:30;;;;;;;1.70;1.50;;;11.60;99.90;;;;;;5004302;28;20581;-81
2021/12/01 05:25:55;;;;;;;1.98;1.20;;;11.60;99.90;;;;;;5013336;28;20186;-80
2021/12/01 05:28:21;;;;;;;3.07;2.17;;;11.50;99.90;;;;;;5013197;28;20190;-80
2021/12/01 05:30:47;;;;;;;1.60;1.10;;;11.50;99.90;;;;;;5013767;28;20666;-81
2021/12/01 05:33:15;;;;;;;3.13;1.57;;;11.50;99.90;;;;;;5013329;28;20611;-80
2021/12/01 05:35:42;;;;;;;2.03;1.20;;;11.50;99.90;;;;;;4979891;28;20639;-80
2021/12/01 05:38:08;;;;;;;2.95;1.27;;;11.50;99.90;;;;;;4994401;28;20602;-81
2021/12/01 05:40:35;;;;;;;3.35;1.10;;;11.40;99.90;;;;;;4999730;28;20195;-81
2021/12/01 05:43:01;;;;;;;1.58;1.10;;;11.40;99.90;;;;;;4999643;28;20159;-80
2021/12/01 05:45:28;;;;;;;1.50;0.95;;;11.40;99.90;;;;;;4998344;28;20180;-80
2021/12/01 05:47:53;;;;;;;1.65;0.98;;;11.40;99.90;;;;;;5013320;28;20193;-80
2021/12/01 05:50:19;;;;;;;1.40;1.00;;;11.40;99.90;;;;;;5013324;28;20182;-79
2021/12/01 05:52:45;;;;;;;1.90;1.30;;;11.40;99.90;;;;;;5001804;28;20170;-80
2021/12/01 05:55:11;;;;;;;1.70;1.23;;;11.40;99.90;;;;;;5013323;28;20217;-81
2021/12/01 05:57:37;;;;;;;1.50;0.87;;;11.30;99.90;;;;;;5013118;28;21101;-80
2021/12/01 06:00:09;;;;;;;1.50;1.03;;;11.20;99.90;;;;;;5013169;28;20577;-80
2021/12/01 06:02:35;;;;;;;1.60;0.85;;;11.20;99.90;;;;;;5011822;28;20209;-80
2021/12/01 06:05:02;;;;;;;1.75;0.85;;;11.10;99.90;;;;;;5012857;28;20167;-80
2021/12/01 06:07:27;;;;;;;1.52;0.90;;;11.10;99.90;;;;;;4995160;28;20174;-80
2021/12/01 06:09:53;;;;;;;2.47;0.90;;;11.00;99.90;;;;;;5013241;28;20166;-81
2021/12/01 06:12:19;;;;;;;2.17;0.70;;;10.90;99.90;;;;;;5012979;28;20248;-80
2021/12/01 06:14:45;;;;;;;2.60;0.93;;;10.90;99.90;;;;;;5011691;28;20175;-81
2021/12/01 06:17:13;;;;;;;1.40;0.93;;;10.80;99.90;;;;;;5012230;28;20194;-80
2021/12/01 06:19:40;;;;;;;1.40;0.77;;;10.80;99.90;;;;;;5012723;28;20696;-80
2021/12/01 06:22:07;;;;;;;1.30;0.90;;;10.80;99.90;;;;;;4995016;28;20205;-80
2021/12/01 06:24:34;;;;;;;1.70;0.73;;;10.70;99.90;;;;;;5012293;28;20171;-82
2021/12/01 06:27:00;;;;;;;1.30;0.70;;;10.70;99.90;;;;;;5012551;28;20178;-81
2021/12/01 06:29:26;;;;;;;1.35;0.80;;;10.80;99.90;;;;;;5014087;28;20162;-81
2021/12/01 06:31:52;;;;;;;2.67;0.90;;;10.80;99.90;;;;;;5012846;28;20194;-81
2021/12/01 06:34:18;;;;;;;1.20;0.70;;;10.80;99.90;;;;;;5011009;28;20225;-81
2021/12/01 06:36:43;;;;;;;1.13;0.77;;;10.80;99.90;;;;;;5011656;28;20665;-81
2021/12/01 06:39:10;;;;;;;1.07;0.60;;;10.90;99.90;;;;;;4994257;28;20174;-81
2021/12/01 06:41:36;;;;;;;1.13;0.60;;;10.90;99.90;;;;;;5011280;28;20528;-81
2021/12/01 06:44:02;;;;;;;1.37;0.73;;;10.90;99.90;;;;;;5010823;28;20170;-81
2021/12/01 06:46:29;;;;;;;1.40;0.77;;;10.90;99.90;;;;;;4978848;28;20174;-80
2021/12/01 06:48:56;;;;;;;1.30;0.70;;;10.90;99.90;;;;;;5011697;28;20550;-79
2021/12/01 06:51:22;;;;;;;1.17;0.65;;;10.90;99.90;;;;;;5011155;28;20284;-81
2021/12/01 06:53:48;;;;;;;1.35;0.70;;;10.90;99.90;;;;;;5010593;28;20181;-82
2021/12/01 06:56:16;;;;;;;1.73;0.90;;;10.90;99.90;;;;;;5012309;28;20301;-81
2021/12/01 06:58:42;;;;;;;1.77;0.75;;;10.90;99.90;;;;;;5011945;28;20171;-82
2021/12/01 07:01:08;;;;;;;2.30;0.80;;;11.00;99.90;;;;;;5019805;23;20254;-73
2021/12/01 07:03:34;;;;;;;3.47;1.10;;;11.00;99.90;;;;;;4992308;28;20235;-73
2021/12/01 07:06:00;;;;;;;2.50;0.70;;;11.10;99.90;;;;;;4992320;28;20790;-72
2021/12/01 07:08:26;;;;;;;2.20;1.25;;;11.10;99.90;;;;;;4992411;28;20266;-72
2021/12/01 07:10:52;;;;;;;2.97;1.83;;;11.20;99.90;;;;;;4992213;28;20774;-73
2021/12/01 07:13:18;;;;;;;3.60;0.90;;;11.10;99.90;;;;;;4979799;28;20531;-74
2021/12/01 07:15:44;;;;;;;2.00;1.00;;;11.20;99.90;;;;;;4972631;28;20203;-73
2021/12/01 07:18:11;;;;;;;2.97;1.10;;;11.20;99.90;;;;;;4972929;28;20180;-73
2021/12/01 07:20:37;;;;;;;2.00;1.00;;;11.20;99.90;;;;;;4972946;28;20644;-74
2021/12/01 07:23:03;;;;;;;1.67;0.90;;;11.20;99.90;;;;;;4955461;28;20168;-75
2021/12/01 07:25:29;;;;;;;1.73;0.95;;;11.30;99.90;;;;;;4972965;28;20575;-74
2021/12/01 07:27:55;;;;;;;1.92;0.85;;;11.30;99.90;;;;;;4972631;28;20175;-73
2021/12/01 07:30:21;;;;;;;1.30;0.70;;;11.30;99.90;;;;;;4972913;28;20172;-74
2021/12/01 07:32:49;;;;;;;2.07;0.70;;;11.40;99.90;;;;;;4972305;28;20646;-74
2021/12/01 07:35:16;;;;;;;1.83;0.70;;;11.40;99.90;;;;;;4972772;28;20637;-74
2021/12/01 07:37:42;;;;;;;1.40;0.70;;;11.40;99.90;;;;;;4972444;28;20542;-74
2021/12/01 07:40:09;;;;;;;2.15;1.65;;;11.50;99.90;;;;;;4972949;28;20599;-74
2021/12/01 07:42:35;;;;;;;1.42;0.80;;;11.60;99.90;;;;;;4955262;28;20195;-74
2021/12/01 07:45:01;;;;;;;1.43;0.80;;;11.60;99.90;;;;;;4972650;28;20627;-74
2021/12/01 07:47:27;;;;;;;1.30;0.80;;;11.60;99.90;;;;;;4974847;28;20944;-74
2021/12/01 07:49:53;;;;;;;1.10;0.60;;;11.60;99.90;;;;;;4955266;28;20174;-73
2021/12/01 07:52:19;;;;;;;1.40;0.70;;;11.70;99.90;;;;;;4972415;28;20711;-74
2021/12/01 07:54:45;;;;;;;1.40;0.50;;;11.70;99.90;;;;;;4972403;28;20550;-74
2021/12/01 07:57:11;;;;;;;1.77;0.70;;;11.70;99.90;;;;;;4972588;28;20168;-74
2021/12/01 07:59:37;;;;;;;1.50;0.60;;;11.80;99.90;;;;;;4956217;28;20180;-73
2021/12/01 08:02:03;;;;;;;1.30;0.60;;;11.80;99.90;;;;;;4959067;28;20630;-74
2021/12/01 08:04:29;;;;;;;1.10;0.68;;;11.80;99.90;;;;;;4976265;28;20167;-73
2021/12/01 08:06:56;;;;;;;1.53;0.43;;;11.80;99.90;;;;;;4976370;28;20194;-73
2021/12/01 08:09:23;;;;;;;2.10;0.60;;;11.80;99.90;;;;;;4976480;28;20662;-73
2021/12/01 08:11:49;;;;;;;1.25;0.60;;;11.80;99.90;;;;;;4976125;28;20226;-74
2021/12/01 08:14:15;;;;;;;1.20;0.50;;;11.90;99.90;;;;;;4976127;28;20172;-74
2021/12/01 08:16:41;;;;;;;2.03;0.50;;;11.90;99.90;;;;;;4976013;28;20635;-73
2021/12/01 08:19:07;;;;;;;1.40;0.70;;;11.90;99.90;;;;;;4976201;28;20255;-73
2021/12/01 08:21:35;;;;;;;1.60;0.80;;;11.90;99.90;;;;;;4975854;28;20195;-73
2021/12/01 08:24:01;;;;;;;3.88;0.70;;;12.00;99.90;;;;;;4978528;28;20204;-73
2021/12/01 08:26:27;;;;;;;1.50;0.80;;;12.00;99.90;;;;;;4976280;28;20262;-74
2021/12/01 08:28:52;;;;;;;1.80;0.80;;;12.00;99.90;;;;;;4977942;28;20634;-73
2021/12/01 08:31:20;;;;;;;2.33;0.80;;;12.10;99.90;;;;;;4975953;28;20702;-73
2021/12/01 08:33:47;;;;;;;1.52;0.50;;;12.10;99.90;;;;;;4975791;28;20167;-72
2021/12/01 08:36:13;;;;;;;1.13;0.50;;;12.10;99.90;;;;;;4975929;28;20207;-73
2021/12/01 08:38:41;;;;;;;2.45;0.60;;;12.10;99.90;;;;;;4975761;28;20178;-73
2021/12/01 08:41:07;;;;;;;1.23;0.60;;;12.20;99.90;;;;;;4976126;28;20223;-73
2021/12/01 08:43:34;;;;;;;1.00;0.40;;;12.20;99.90;;;;;;4975857;28;20195;-74
2021/12/01 08:46:01;;;;;;;1.50;0.60;;;12.20;99.90;;;;;;4942722;28;20210;-73
2021/12/01 08:48:27;;;;;;;2.45;0.50;;;12.30;99.90;;;;;;4975729;28;20596;-73
2021/12/01 08:50:56;;;;;;;4.30;0.50;;;12.30;99.90;;;;;;4975751;28;20783;-73
2021/12/01 08:53:23;;;;;;;1.05;0.50;;;12.30;99.90;;;;;;4975637;28;20248;-73
2021/12/01 08:55:49;;;;;;;1.00;0.40;;;12.30;99.90;;;;;;4988390;28;20186;-73
2021/12/01 08:58:16;;;;;;;1.00;0.40;;;12.30;99.90;;;;;;4995085;28;20163;-73
2021/12/01 09:00:45;;;;;;;1.10;0.60;;;12.40;99.90;;;;;;4997058;28;20783;-74
2021/12/01 09:03:13;;;;;;;1.00;0.50;;;12.30;99.90;;;;;;4995638;28;20175;-73
2021/12/01 09:05:40;;;;;;;1.00;0.40;;;12.30;99.90;;;;;;4994679;28;20182;-73
2021/12/01 09:08:07;;;;;;;1.00;0.50;;;12.30;99.90;;;;;;4994973;28;20305;-73
2021/12/01 09:10:33;;;;;;;0.90;0.40;;;12.30;99.90;;;;;;4993953;28;20179;-73
2021/12/01 09:13:00;;;;;;;1.00;0.40;;;12.30;99.90;;;;;;4994272;28;20206;-74
2021/12/01 09:15:27;;;;;;;1.35;0.50;;;12.30;99.90;;;;;;4994764;28;20213;-73
2021/12/01 09:17:52;;;;;;;1.00;0.50;;;12.20;99.90;;;;;;4994547;28;20167;-74
2021/12/01 09:20:18;;;;;;;1.00;0.40;;;12.20;99.90;;;;;;4994807;28;20675;-74
2021/12/01 09:22:45;;;;;;;1.42;0.57;;;12.20;99.90;;;;;;4994509;28;20190;-74
2021/12/01 09:25:11;;;;;;;2.43;0.40;;;12.20;99.90;;;;;;4994610;28;20167;-74
2021/12/01 09:27:37;;;;;;;1.00;0.45;;;12.20;99.90;;;;;;4993174;28;20632;-73
2021/12/01 09:30:06;;;;;;;1.13;0.50;;;12.20;99.90;;;;;;4993146;28;20206;-73
2021/12/01 09:32:34;;;;;;;1.08;0.40;;;12.20;99.90;;;;;;4975882;28;20207;-73
2021/12/01 09:35:02;;;;;;;1.05;0.40;;;12.20;99.90;;;;;;4993357;28;20199;-74
2021/12/01 09:37:28;;;;;;;1.50;0.40;;;12.20;99.90;;;;;;4994075;28;20632;-72
2021/12/01 09:39:54;;;;;;;1.03;0.43;;;12.20;99.90;;;;;;4964518;28;20222;-73
2021/12/01 09:42:20;;;;;;;1.93;0.50;;;12.20;99.90;;;;;;4993964;28;20625;-73
2021/12/01 09:44:48;;;;;;;1.00;0.47;;;12.20;99.90;;;;;;4993464;28;20601;-74
2021/12/01 09:47:19;;;;;;;1.05;0.45;;;12.20;99.90;;;;;;4976431;28;20171;-73
2021/12/01 09:49:50;;;;;;;1.85;0.50;;;12.20;99.90;;;;;;4993519;28;20167;-73
2021/12/01 09:52:17;;;;;;;1.00;0.50;;;12.10;99.90;;;;;;4993720;28;20655;-73
2021/12/01 09:54:42;;;;;;;1.17;0.40;;;12.20;99.90;;;;;;4993033;28;20535;-73
2021/12/01 09:57:13;;;;;;;1.10;0.40;;;12.10;99.90;;;;;;4993630;28;20226;-73
2021/12/01 09:59:41;;;;;;;1.85;0.40;;;12.00;99.90;;;;;;4973779;28;20210;-73
2021/12/01 10:02:08;;;;;;;0.93;0.40;;;12.00;99.90;;;;;;4974211;28;20196;-73
2021/12/01 10:04:34;;;;;;;1.58;0.40;;;12.00;99.90;;;;;;4973740;28;20212;-73
2021/12/01 10:07:23;;;;;;;0.90;0.40;;;12.00;99.90;;;;;;4974104;28;20578;-73
2021/12/01 10:09:56;;;;;;;1.60;0.63;;;12.10;99.90;;;;;;4972912;28;20586;-74
2021/12/01 10:12:23;;;;;;;1.42;0.50;;;12.10;99.90;;;;;;4987110;28;20202;-73
2021/12/01 10:14:51;;;;;;;1.20;0.40;;;12.10;99.90;;;;;;4976320;28;20358;-73
2021/12/01 10:17:32;;;;;;;1.00;0.40;;;12.10;99.90;;;;;;4994006;28;20211;-74
2021/12/01 10:20:16;;;;;;;0.90;0.40;;;12.10;99.90;;;;;;4959682;28;20171;-74
2021/12/01 10:23:07;;;;;;;0.90;0.30;;;12.10;99.90;;;;;;4984908;28;20191;-73
2021/12/01 10:25:33;;;;;;;1.00;0.40;;;12.20;99.90;;;;;;4978967;28;20201;-72
2021/12/01 10:27:59;;;;;;;1.10;0.50;;;12.20;99.90;;;;;;4992837;28;20187;-73
2021/12/01 10:30:38;;;;;;;0.93;0.40;;;12.20;99.90;;;;;;4992495;28;20965;-73
2021/12/01 10:33:13;;;;;;;1.00;0.50;;;12.20;99.90;;;;;;4975272;28;20570;-73
2021/12/01 10:35:40;;;;;;;0.90;0.40;;;12.20;99.90;;;;;;4992510;28;20234;-74
2021/12/01 10:38:07;;;;;;;0.90;0.40;;;12.20;99.90;;;;;;4975179;28;20499;-74
2021/12/01 10:40:37;;;;;;;0.90;0.30;;;12.20;99.90;;;;;;4991660;28;20623;-73
2021/12/01 10:43:10;;;;;;;0.90;0.30;;;12.20;99.90;;;;;;4992780;28;20187;-74
2021/12/01 10:45:42;;;;;;;0.90;0.40;;;12.20;99.90;;;;;;4993166;28;20166;-74
2021/12/01 10:48:10;;;;;;;0.80;0.40;;;12.30;99.90;;;;;;4975186;28;20588;-73
2021/12/01 10:50:41;;;;;;;0.90;0.40;;;12.30;99.90;;;;;;4991843;28;20379;-75
2021/12/01 10:53:11;;;;;;;0.80;0.30;;;12.30;99.90;;;;;;4997172;28;20622;-75
2021/12/01 10:56:04;;;;;;;0.90;0.40;;;12.40;99.90;;;;;;4990618;28;20217;-75
2021/12/01 10:58:35;;;;;;;0.90;0.40;;;12.40;99.90;;;;;;4987094;28;20190;-75
2021/12/01 11:01:03;;;;;;;1.27;0.40;;;12.50;99.90;;;;;;4987550;28;20199;-75
2021/12/01 11:03:34;;;;;;;1.00;0.40;;;12.50;99.90;;;;;;4972851;28;20167;-75
2021/12/01 11:06:34;;;;;;;1.00;0.50;;;12.50;99.90;;;;;;4987377;28;20587;-75
2021/12/01 11:09:01;;;;;;;1.00;0.40;;;12.60;99.90;;;;;;4966139;28;20263;-73
2021/12/01 11:11:43;;;;;;;0.80;0.40;;;12.70;99.90;;;;;;4971923;28;20603;-73
2021/12/01 11:14:15;;;;;;;1.30;0.40;;;12.70;99.90;;;;;;4973249;28;20171;-73
2021/12/01 11:16:43;;;;;;;0.90;0.40;;;12.80;99.90;;;;;;4972982;28;20677;-72
2021/12/01 11:19:09;;;;;;;1.00;0.37;;;12.80;99.90;;;;;;4971895;28;20622;-73
2021/12/01 11:21:37;;;;;;;1.50;0.50;;;12.80;99.90;;;;;;4971713;28;20618;-73
2021/12/01 11:24:12;;;;;;;2.80;0.80;;;12.90;99.90;;;;;;4972982;28;20175;-73
2021/12/01 11:26:42;;;;;;;1.30;0.50;;;12.90;99.90;;;;;;4955752;28;20208;-72
2021/12/01 11:29:12;;;;;;;1.13;0.50;;;12.90;99.90;;;;;;4971988;28;20649;-72
2021/12/01 11:31:44;;;;;;;1.37;0.50;;;13.00;99.90;;;;;;4971045;28;20639;-72
2021/12/01 11:34:13;;;;;;;1.83;0.50;;;13.00;99.90;;;;;;4971185;28;20595;-72
2021/12/01 11:36:43;;;;;;;1.10;0.50;;;13.10;99.90;;;;;;4972745;28;20655;-73
2021/12/01 11:39:12;;;;;;;3.27;0.70;;;13.10;99.90;;;;;;4971014;28;20605;-71
2021/12/01 11:41:42;;;;;;;1.27;0.63;;;13.20;99.90;;;;;;4972773;28;20603;-72
2021/12/01 11:44:10;;;;;;;2.70;0.60;;;13.20;99.90;;;;;;4972663;28;20671;-72
2021/12/01 11:46:36;;;;;;;1.30;0.57;;;13.10;99.90;;;;;;4971610;28;20606;-72
2021/12/01 11:49:08;;;;;;;1.30;0.60;;;13.20;99.90;;;;;;4987149;28;20572;-72
2021/12/01 11:51:47;;;;;;;2.30;1.07;;;13.20;99.90;;;;;;4972878;28;20706;-72
2021/12/01 11:54:21;;;;;;;1.77;0.97;;;13.10;99.90;;;;;;4972382;28;21138;-73
2021/12/01 11:57:08;;;;;;;2.67;1.33;;;13.10;99.90;;;;;;4972607;28;20630;-73
2021/12/01 11:59:47;;;;;;;2.17;1.33;;;13.10;99.90;;;;;;4971219;28;20598;-73
2021/12/01 12:02:15;;;;;;;1.27;0.73;;;13.10;99.90;;;;;;4985688;28;20610;-74
2021/12/01 12:04:51;;;;;;;1.80;1.10;;;13.00;99.90;;;;;;4991598;28;20689;-73
2021/12/01 12:07:32;;;;;;;2.27;1.13;;;13.00;99.90;;;;;;4991864;28;20217;-73
2021/12/01 12:10:06;;;;;;;1.40;0.60;;;12.90;99.90;;;;;;4991801;28;20628;-73
2021/12/01 12:12:56;;;;;;;1.90;0.60;;;12.90;99.90;;;;;;4991846;28;21164;-73
2021/12/01 12:15:36;;;;;;;1.27;0.60;;;12.90;99.90;;;;;;4974226;28;20269;-73
2021/12/01 12:18:02;;;;;;;1.25;0.60;;;12.80;99.90;;;;;;4974466;28;20198;-72
2021/12/01 12:20:32;;;;;;;1.50;0.60;;;12.80;99.90;;;;;;4990514;28;20808;-73
2021/12/01 12:23:02;;;;;;;1.10;0.52;;;12.70;99.90;;;;;;4974322;28;20179;-73
2021/12/01 12:25:52;;;;;;;2.13;0.77;;;12.70;99.90;;;;;;4991846;28;20171;-74
2021/12/01 12:28:26;;;;;;;2.00;0.90;;;12.60;99.90;;;;;;4991856;28;20203;-73
2021/12/01 12:31:16;;;;;;;2.03;1.40;;;12.50;99.90;;;;;;4991585;28;20199;-73
2021/12/01 12:34:01;;;;;;;3.97;1.95;;;12.50;99.90;;;;;;4980990;28;20273;-73
2021/12/01 12:36:48;;;;;;;2.50;1.38;;;12.40;99.90;;;;;;4970577;28;20209;-72
2021/12/01 12:39:23;;;;;;;2.05;1.08;;;12.40;99.90;;;;;;4978945;28;20178;-73
2021/12/01 12:41:55;;;;;;;1.20;0.80;;;12.40;99.90;;;;;;4974323;28;20218;-73
2021/12/01 12:44:48;;;;;;;2.45;1.05;;;12.30;99.90;;;;;;4986683;28;20254;-73
2021/12/01 12:47:34;;;;;;;2.30;1.00;;;12.30;99.90;;;;;;4958209;28;20180;-73
2021/12/01 12:50:19;;;;;;;3.72;1.23;;;12.30;99.90;;;;;;4975697;28;20262;-72
2021/12/01 12:52:50;;;;;;;2.95;1.20;;;12.20;99.90;;;;;;4975340;28;20199;-72
2021/12/01 12:55:22;;;;;;;3.13;1.50;;;12.10;99.90;;;;;;4995044;28;20178;-72
2021/12/01 12:58:04;;;;;;;8.68;2.72;;;12.10;99.90;;;;;;4977653;28;20262;-72
2021/12/01 13:00:37;;;;;;;4.43;2.78;;;12.00;99.90;;;;;;4983582;28;20171;-73
2021/12/01 13:03:22;;;;;;;5.85;4.60;;;12.00;99.90;;;;;;4965636;28;20180;-84